Time;durP1;ratioP1;P1;durP2;ratioP2;P2;SDS_P1;SDS_P2;PMS_P1;PMS_P2;Temp;Humidity;BMP_temperature;BMP_pressure;BME280_temperature;BME280_humidity;BME280_pressure;Samples;Min_cycle;Max_cycle;Signal;HPM_P1;HPM_P2
2022/07/03 00:04:09;;;;;;;5.28;3.72;;;24.70;94.80;;;;;;12999402;22;20306;-81
2022/07/03 00:09:12;;;;;;;3.92;3.53;;;24.70;94.70;;;;;;12981503;22;20194;-81
2022/07/03 00:14:14;;;;;;;3.67;3.28;;;24.70;94.70;;;;;;12979192;22;20170;-81
2022/07/03 00:19:17;;;;;;;3.30;3.00;;;24.70;94.60;;;;;;12954585;22;20165;-81
2022/07/03 00:24:28;;;;;;;3.72;3.17;;;24.70;94.50;;;;;;12981137;22;20173;-81
2022/07/03 00:29:37;;;;;;;3.55;3.15;;;24.70;94.50;;;;;;12996967;22;20189;-82
2022/07/03 00:34:42;;;;;;;7.00;3.35;;;24.70;94.40;;;;;;12998380;22;20823;-81
2022/07/03 00:39:45;;;;;;;3.80;3.42;;;24.70;94.30;;;;;;12998640;22;20166;-82
2022/07/03 00:44:54;;;;;;;5.30;3.78;;;24.70;94.20;;;;;;12981208;22;20174;-81
2022/07/03 00:49:57;;;;;;;5.22;3.70;;;24.60;94.20;;;;;;12996936;22;20189;-81
2022/07/03 00:55:00;;;;;;;4.20;3.83;;;24.60;94.10;;;;;;12980961;22;20200;-81
2022/07/03 01:00:03;;;;;;;5.85;2.92;;;24.60;94.10;;;;;;12979510;22;20200;-81
2022/07/03 01:05:23;;;;;;;4.32;3.60;;;24.50;94.00;;;;;;12980549;22;20223;-81
2022/07/03 01:11:03;;;;;;;4.05;3.33;;;24.50;94.00;;;;;;12979575;22;20223;-82
2022/07/03 01:16:12;;;;;;;4.90;3.13;;;24.50;93.90;;;;;;12980389;22;20178;-82
2022/07/03 01:21:41;;;;;;;3.65;3.35;;;24.60;93.80;;;;;;12996603;22;20599;-82
2022/07/03 01:26:46;;;;;;;3.63;3.33;;;24.60;93.60;;;;;;12980746;22;20189;-82
2022/07/03 01:31:51;;;;;;;3.60;2.88;;;24.60;93.50;;;;;;12960712;22;20166;-82
2022/07/03 01:36:57;;;;;;;4.28;3.17;;;24.70;93.30;;;;;;12979573;22;20169;-82
2022/07/03 01:42:02;;;;;;;3.55;2.85;;;24.60;93.30;;;;;;12952566;22;20182;-81
2022/07/03 01:47:05;;;;;;;3.60;3.10;;;24.50;93.20;;;;;;12983576;22;20185;-82
2022/07/03 01:52:10;;;;;;;4.20;3.70;;;24.50;93.20;;;;;;12982227;22;20200;-82
2022/07/03 01:57:45;;;;;;;3.47;3.15;;;24.50;93.20;;;;;;13002649;22;20223;-81
2022/07/03 02:03:08;;;;;;;4.03;3.72;;;24.50;93.10;;;;;;12959851;22;20178;-82
2022/07/03 02:08:31;;;;;;;3.17;2.92;;;24.50;92.90;;;;;;12983732;22;20185;-82
2022/07/03 02:13:38;;;;;;;9.13;4.05;;;24.40;92.80;;;;;;12985293;22;20544;-82
2022/07/03 02:18:42;;;;;;;5.93;3.42;;;24.50;92.80;;;;;;12974794;22;20165;-82
2022/07/03 02:23:55;;;;;;;3.53;3.22;;;24.40;92.70;;;;;;12983339;22;20170;-82
2022/07/03 02:29:05;;;;;;;4.55;4.10;;;24.40;92.60;;;;;;12931056;22;20194;-82
2022/07/03 02:34:13;;;;;;;3.97;3.60;;;24.40;92.50;;;;;;12983571;22;20263;-82
2022/07/03 02:39:29;;;;;;;5.35;3.67;;;24.40;92.50;;;;;;12975427;22;20223;-82
2022/07/03 02:44:40;;;;;;;4.80;3.63;;;24.40;92.40;;;;;;12999906;22;20196;-82
2022/07/03 02:50:03;;;;;;;3.50;3.20;;;24.40;92.30;;;;;;12973925;22;20190;-82
2022/07/03 02:55:18;;;;;;;5.78;3.35;;;24.40;92.10;;;;;;12979831;22;20169;-82
2022/07/03 03:00:22;;;;;;;4.05;3.28;;;24.40;92.00;;;;;;12979189;22;20181;-82
2022/07/03 03:05:35;;;;;;;6.40;3.60;;;24.40;91.90;;;;;;12954854;22;20227;-82
2022/07/03 03:10:39;;;;;;;6.63;3.35;;;24.40;91.90;;;;;;12996692;22;20571;-82
2022/07/03 03:16:08;;;;;;;6.85;3.95;;;24.40;91.80;;;;;;12982526;22;20482;-82
2022/07/03 03:21:15;;;;;;;5.78;3.30;;;24.40;91.70;;;;;;12981881;22;20231;-82
2022/07/03 03:26:23;;;;;;;6.88;3.20;;;24.40;91.80;;;;;;13000304;22;20652;-83
2022/07/03 03:31:27;;;;;;;9.60;3.60;;;24.30;91.80;;;;;;12981351;22;20174;-83
2022/07/03 03:36:29;;;;;;;3.67;3.38;;;24.30;91.80;;;;;;12981003;22;20501;-83
2022/07/03 03:41:33;;;;;;;3.60;3.30;;;24.30;91.80;;;;;;12981122;22;20223;-83
2022/07/03 03:46:36;;;;;;;5.95;3.20;;;24.40;91.70;;;;;;12981017;22;20182;-83
2022/07/03 03:51:39;;;;;;;6.25;3.40;;;24.40;91.80;;;;;;12980936;22;20165;-83
2022/07/03 03:56:42;;;;;;;6.18;3.47;;;24.30;91.80;;;;;;12951128;22;20181;-83
2022/07/03 04:01:45;;;;;;;5.22;3.05;;;24.30;91.90;;;;;;12952476;22;20174;-83
2022/07/03 04:06:48;;;;;;;3.90;2.75;;;24.40;92.00;;;;;;12980815;22;20190;-83
2022/07/03 04:11:50;;;;;;;7.32;3.85;;;24.40;92.10;;;;;;12980081;22;20216;-83
2022/07/03 04:16:56;;;;;;;3.00;2.80;;;24.50;92.10;;;;;;12979828;22;20200;-83
2022/07/03 04:21:59;;;;;;;3.38;2.92;;;24.50;92.40;;;;;;12980340;22;20169;-83
2022/07/03 04:27:02;;;;;;;5.40;3.17;;;24.50;92.30;;;;;;12979156;22;20578;-83
2022/07/03 04:32:05;;;;;;;3.60;3.30;;;24.60;92.40;;;;;;12980611;22;20166;-83
2022/07/03 04:37:07;;;;;;;7.35;3.17;;;24.70;92.50;;;;;;12980852;22;20223;-83
2022/07/03 04:42:10;;;;;;;5.28;2.88;;;24.90;92.30;;;;;;12980791;22;20166;-83
2022/07/03 04:47:14;;;;;;;4.30;3.05;;;24.90;92.40;;;;;;12980307;22;20177;-83
2022/07/03 04:52:17;;;;;;;3.95;3.45;;;24.70;92.80;;;;;;12953321;22;20234;-83
2022/07/03 04:57:19;;;;;;;4.38;2.97;;;24.60;93.30;;;;;;12952819;22;20702;-83
2022/07/03 05:02:22;;;;;;;2.75;2.55;;;24.70;93.50;;;;;;12980203;22;20173;-83
2022/07/03 05:07:24;;;;;;;9.68;6.22;;;24.70;93.60;;;;;;12980506;22;20258;-83
2022/07/03 05:12:27;;;;;;;5.47;3.30;;;24.60;94.60;;;;;;12980486;22;20235;-83
2022/07/03 05:17:30;;;;;;;6.45;3.00;;;24.70;94.20;;;;;;12981435;22;20174;-83
2022/07/03 05:22:32;;;;;;;4.00;2.90;;;24.70;94.30;;;;;;12984007;22;20165;-83
2022/07/03 05:27:38;;;;;;;8.20;3.10;;;24.70;94.50;;;;;;12984326;22;20189;-82
2022/07/03 05:32:40;;;;;;;3.80;3.10;;;24.50;95.10;;;;;;12989582;22;20220;-83
2022/07/03 05:37:43;;;;;;;3.50;3.20;;;24.50;95.60;;;;;;12984635;22;20192;-83
2022/07/03 05:42:46;;;;;;;5.57;4.45;;;24.60;95.50;;;;;;12984066;22;20170;-83
2022/07/03 05:47:48;;;;;;;4.45;2.90;;;24.10;98.10;;;;;;12957253;22;20705;-83
2022/07/03 05:52:51;;;;;;;4.75;3.28;;;23.70;98.50;;;;;;12984333;22;20165;-83
2022/07/03 05:57:53;;;;;;;2.92;2.72;;;24.10;97.90;;;;;;12982537;22;20189;-83
2022/07/03 06:02:56;;;;;;;3.20;2.78;;;24.50;97.20;;;;;;12988116;22;20169;-83
2022/07/03 06:07:59;;;;;;;4.93;2.40;;;24.50;97.70;;;;;;12984577;22;20189;-83
2022/07/03 06:13:02;;;;;;;5.60;3.13;;;23.80;98.60;;;;;;12983093;22;20251;-83
2022/07/03 06:18:04;;;;;;;2.60;2.40;;;24.00;98.40;;;;;;12982063;22;20170;-83
2022/07/03 06:23:07;;;;;;;2.30;2.10;;;24.10;98.10;;;;;;12983517;22;20227;-83
2022/07/03 06:28:30;;;;;;;2.03;1.90;;;24.00;98.40;;;;;;12934275;22;20251;-82
2022/07/03 06:33:32;;;;;;;5.05;2.15;;;24.00;98.40;;;;;;12983803;22;20219;-83
2022/07/03 06:38:35;;;;;;;2.25;2.10;;;24.50;98.10;;;;;;12998717;22;20166;-83
2022/07/03 06:43:38;;;;;;;2.97;2.05;;;24.70;97.20;;;;;;12982777;22;20169;-83
2022/07/03 06:48:40;;;;;;;5.53;2.00;;;24.70;96.50;;;;;;12954837;22;20193;-82
2022/07/03 06:53:43;;;;;;;5.10;1.67;;;24.40;97.70;;;;;;13000886;22;20166;-83
2022/07/03 06:58:45;;;;;;;12.38;6.65;;;24.70;98.40;;;;;;12982778;22;20500;-83
2022/07/03 07:03:49;;;;;;;2.20;2.00;;;24.80;97.40;;;;;;12929029;22;20178;-83
2022/07/03 07:08:52;;;;;;;2.10;1.90;;;24.70;97.10;;;;;;12981751;22;20193;-83
2022/07/03 07:13:54;;;;;;;2.20;2.00;;;25.10;96.90;;;;;;12981317;22;20186;-82
2022/07/03 07:18:57;;;;;;;2.05;1.85;;;25.00;96.90;;;;;;12981780;22;20560;-82
2022/07/03 07:23:59;;;;;;;2.35;2.13;;;25.30;96.20;;;;;;12981033;22;20170;-82
2022/07/03 07:29:02;;;;;;;2.42;2.10;;;25.20;96.40;;;;;;12981276;22;20193;-82
2022/07/03 07:34:05;;;;;;;2.25;2.05;;;25.70;95.50;;;;;;12981278;22;20554;-82
2022/07/03 07:39:07;;;;;;;3.45;2.10;;;25.90;95.20;;;;;;12979567;22;20505;-82
2022/07/03 07:44:10;;;;;;;2.10;2.00;;;25.70;94.70;;;;;;12981181;22;20169;-82
2022/07/03 07:49:15;;;;;;;4.28;2.40;;;25.80;95.00;;;;;;12999087;22;20193;-82
2022/07/03 07:54:18;;;;;;;2.67;2.30;;;25.80;94.80;;;;;;12980538;22;20547;-82
2022/07/03 07:59:20;;;;;;;2.85;2.30;;;25.90;94.40;;;;;;12953161;22;20801;-82
2022/07/03 08:09:44;;;;;;;2.38;2.17;;;26.00;94.40;;;;;;12996506;22;20543;-82
2022/07/03 08:14:47;;;;;;;2.45;2.13;;;25.80;94.10;;;;;;12953679;22;20166;-82
2022/07/03 08:19:49;;;;;;;2.85;2.53;;;25.80;94.40;;;;;;12979477;22;20248;-82
2022/07/03 08:24:51;;;;;;;2.53;1.50;;;25.70;94.60;;;;;;12980573;22;20223;-82
2022/07/03 08:29:54;;;;;;;4.00;2.10;;;26.10;93.10;;;;;;12997485;22;20189;-82
2022/07/03 08:34:56;;;;;;;3.17;2.33;;;26.10;92.90;;;;;;12978774;22;20166;-82
2022/07/03 08:39:59;;;;;;;3.55;2.35;;;26.10;94.00;;;;;;12980125;22;20560;-82
2022/07/03 08:45:02;;;;;;;2.70;2.50;;;25.70;94.00;;;;;;12951600;22;20178;-82
2022/07/03 08:50:05;;;;;;;2.33;2.13;;;25.70;94.30;;;;;;12952564;22;20201;-82
2022/07/03 08:55:09;;;;;;;2.35;2.15;;;25.60;94.50;;;;;;12953000;22;20543;-82
2022/07/03 09:00:14;;;;;;;2.47;2.28;;;25.60;94.50;;;;;;12927518;22;20204;-82
2022/07/03 09:05:18;;;;;;;5.80;2.08;;;25.60;94.50;;;;;;12977301;22;20173;-82
2022/07/03 09:10:20;;;;;;;2.95;2.22;;;25.50;93.70;;;;;;12975354;22;20525;-82
2022/07/03 09:15:23;;;;;;;3.80;2.30;;;25.70;94.40;;;;;;12948672;22;20178;-83
2022/07/03 09:20:34;;;;;;;2.38;2.17;;;25.90;94.00;;;;;;12923084;22;20648;-82
2022/07/03 09:26:16;;;;;;;4.03;2.53;;;25.90;93.90;;;;;;12969260;22;20169;-82
2022/07/03 09:31:22;;;;;;;2.25;2.15;;;25.90;94.10;;;;;;12928912;22;20200;-82
2022/07/03 09:36:41;;;;;;;4.28;2.55;;;25.90;93.80;;;;;;12975537;22;20217;-82
2022/07/03 09:42:03;;;;;;;3.15;2.67;;;25.50;93.00;;;;;;12974915;22;20672;-82
2022/07/03 09:47:20;;;;;;;5.78;2.38;;;25.70;94.20;;;;;;12974032;22;20232;-82
2022/07/03 09:52:30;;;;;;;2.78;2.58;;;25.80;93.50;;;;;;12949506;22;20564;-82
2022/07/03 09:57:32;;;;;;;5.82;2.45;;;26.00;93.80;;;;;;12977642;22;20212;-82
2022/07/03 10:02:35;;;;;;;4.00;3.15;;;25.70;94.20;;;;;;12978575;22;20196;-82
2022/07/03 10:07:59;;;;;;;3.13;2.90;;;25.80;94.10;;;;;;13001427;22;20656;-82
2022/07/03 10:13:03;;;;;;;2.65;2.45;;;25.90;93.90;;;;;;12980985;22;20201;-82
2022/07/03 10:18:07;;;;;;;2.92;2.08;;;26.00;93.80;;;;;;12980417;22;20178;-81
2022/07/03 10:23:10;;;;;;;2.55;2.35;;;26.00;92.30;;;;;;12982708;22;20169;-81
2022/07/03 10:28:14;;;;;;;3.30;3.10;;;26.00;93.40;;;;;;12982084;22;20190;-81
2022/07/03 10:33:18;;;;;;;2.30;2.10;;;26.30;93.10;;;;;;12955548;22;20170;-81
2022/07/03 10:38:34;;;;;;;2.70;2.50;;;26.20;93.10;;;;;;12954380;22;20575;-82
2022/07/03 10:49:12;;;;;;;6.55;1.60;;;25.90;93.50;;;;;;12982802;22;20186;-82
2022/07/03 10:54:39;;;;;;;3.10;2.45;;;26.00;94.10;;;;;;12999376;22;20166;-82
2022/07/03 10:59:44;;;;;;;5.03;2.38;;;26.10;93.60;;;;;;12998956;22;20166;-82
2022/07/03 11:04:59;;;;;;;4.60;2.97;;;26.20;93.60;;;;;;12953779;22;20174;-83
2022/07/03 11:10:14;;;;;;;2.50;2.30;;;26.10;93.60;;;;;;12954766;22;20263;-83
2022/07/03 11:15:31;;;;;;;5.78;2.55;;;26.10;94.00;;;;;;12996847;22;20227;-83
2022/07/03 11:20:46;;;;;;;3.20;2.55;;;26.00;94.00;;;;;;12981706;22;20845;-82
2022/07/03 11:25:50;;;;;;;5.93;2.70;;;25.90;94.80;;;;;;12999890;22;20227;-83
2022/07/03 11:31:11;;;;;;;3.15;2.20;;;25.90;94.80;;;;;;12955586;22;20186;-82
2022/07/03 11:36:16;;;;;;;2.78;2.25;;;26.10;94.70;;;;;;12981354;22;20165;-82
2022/07/03 11:41:19;;;;;;;2.83;2.22;;;26.30;94.40;;;;;;12984602;22;20165;-83
2022/07/03 11:46:27;;;;;;;3.88;2.17;;;26.30;94.40;;;;;;12988790;22;20196;-83
2022/07/03 11:51:29;;;;;;;5.15;2.60;;;26.40;92.50;;;;;;12957283;22;20544;-83
2022/07/03 11:56:35;;;;;;;4.38;2.60;;;26.30;94.10;;;;;;12986678;22;20172;-82
2022/07/03 12:01:38;;;;;;;2.10;2.00;;;26.20;94.00;;;;;;12972468;22;20173;-82
2022/07/03 12:06:48;;;;;;;3.75;2.20;;;26.20;94.20;;;;;;12960576;22;20166;-83
2022/07/03 12:11:56;;;;;;;4.30;2.10;;;26.10;94.50;;;;;;12993452;22;20193;-83
2022/07/03 12:16:59;;;;;;;2.80;2.50;;;26.10;94.20;;;;;;12931393;22;20177;-82
2022/07/03 12:22:01;;;;;;;4.03;2.15;;;26.20;94.20;;;;;;12984669;22;20555;-82
2022/07/03 12:27:04;;;;;;;2.10;1.90;;;26.40;93.80;;;;;;12991562;22;20158;-83
2022/07/03 12:32:10;;;;;;;2.90;2.03;;;26.40;93.50;;;;;;13032653;22;20259;-83
2022/07/03 12:37:13;;;;;;;2.50;2.30;;;26.60;92.80;;;;;;13058373;22;20149;-84
2022/07/03 12:42:20;;;;;;;2.25;2.05;;;26.40;93.70;;;;;;13042404;22;20311;-84
2022/07/03 12:47:23;;;;;;;2.28;2.00;;;26.60;93.50;;;;;;13050028;22;20237;-83
2022/07/03 12:52:30;;;;;;;3.97;1.88;;;26.40;93.10;;;;;;13041317;22;20260;-83
2022/07/03 13:02:53;;;;;;;2.38;2.17;;;26.80;92.60;;;;;;13033319;22;20184;-83
2022/07/03 13:07:56;;;;;;;2.67;1.67;;;27.00;92.20;;;;;;13039966;22;20237;-86
2022/07/03 13:12:59;;;;;;;4.55;1.88;;;26.70;92.40;;;;;;13010925;22;20227;-84
2022/07/03 13:18:02;;;;;;;4.18;2.70;;;26.70;91.60;;;;;;13016452;22;20237;-83
2022/07/03 13:23:05;;;;;;;1.75;1.50;;;26.60;91.80;;;;;;13043446;22;20222;-83
2022/07/03 13:28:15;;;;;;;2.85;2.13;;;26.70;91.70;;;;;;13043508;22;20220;-83
2022/07/03 13:33:17;;;;;;;2.15;2.00;;;26.50;92.00;;;;;;13022252;22;20254;-83
2022/07/03 13:38:19;;;;;;;1.60;1.50;;;26.50;92.10;;;;;;13016033;22;20213;-88
2022/07/03 13:43:22;;;;;;;1.45;1.35;;;26.40;91.80;;;;;;13038392;22;20170;-83
2022/07/03 13:48:24;;;;;;;2.08;1.80;;;26.70;91.20;;;;;;12986906;22;20255;-82
2022/07/03 13:53:27;;;;;;;4.63;1.73;;;26.90;90.40;;;;;;12993004;22;20189;-82
2022/07/03 13:58:30;;;;;;;3.42;1.90;;;27.10;90.60;;;;;;12966979;22;20174;-82
2022/07/03 14:03:32;;;;;;;2.67;2.05;;;26.80;90.80;;;;;;12966271;22;20231;-82
2022/07/03 14:08:35;;;;;;;1.85;1.63;;;26.50;91.30;;;;;;12967193;22;20186;-82
2022/07/03 14:13:37;;;;;;;2.00;1.88;;;26.50;91.60;;;;;;12968619;22;20194;-83
2022/07/03 14:18:40;;;;;;;1.60;1.50;;;26.40;91.60;;;;;;12997477;22;20200;-83
2022/07/03 14:23:42;;;;;;;1.98;1.88;;;26.50;91.70;;;;;;12992798;22;20165;-82
2022/07/03 14:34:07;;;;;;;2.90;2.40;;;26.40;83.70;;;;;;12992318;22;20504;-82
2022/07/03 14:39:10;;;;;;;2.00;1.90;;;26.60;91.40;;;;;;13007743;22;20481;-82
2022/07/03 14:44:12;;;;;;;3.15;1.98;;;26.80;91.30;;;;;;12990203;22;20192;-82
2022/07/03 14:49:14;;;;;;;2.10;2.00;;;26.70;91.40;;;;;;12989387;22;20216;-82
2022/07/03 14:54:18;;;;;;;1.95;1.85;;;26.60;91.50;;;;;;12988791;22;20166;-82
2022/07/03 14:59:55;;;;;;;2.00;1.90;;;26.50;91.80;;;;;;12988251;22;20165;-82
2022/07/03 15:05:09;;;;;;;2.92;2.17;;;26.40;92.00;;;;;;12954061;22;20219;-82
2022/07/03 15:10:15;;;;;;;2.35;2.15;;;26.30;92.20;;;;;;12935799;22;20194;-83
2022/07/03 15:15:21;;;;;;;1.90;1.80;;;26.20;92.40;;;;;;13002391;22;20223;-82
2022/07/03 15:20:29;;;;;;;2.28;2.08;;;26.20;92.50;;;;;;12973619;22;20170;-82
2022/07/03 15:25:35;;;;;;;2.20;2.00;;;26.20;92.60;;;;;;13001568;22;20224;-82
2022/07/03 15:30:45;;;;;;;2.20;2.00;;;26.20;92.70;;;;;;12955204;22;20193;-84
2022/07/03 15:36:00;;;;;;;2.17;2.00;;;26.10;92.30;;;;;;12973925;22;20166;-83
2022/07/03 15:41:06;;;;;;;2.10;2.00;;;26.20;92.80;;;;;;13000497;22;20191;-83
2022/07/03 15:46:24;;;;;;;1.90;1.80;;;26.20;92.70;;;;;;12996435;22;20272;-83
2022/07/03 15:51:49;;;;;;;2.15;1.98;;;26.20;92.70;;;;;;12996632;22;20189;-83
2022/07/03 15:56:56;;;;;;;2.10;2.00;;;26.10;92.90;;;;;;12979492;22;20185;-83
2022/07/03 16:02:14;;;;;;;2.28;2.17;;;26.10;93.00;;;;;;12991500;22;20169;-83
2022/07/03 16:07:18;;;;;;;1.80;1.70;;;26.10;93.10;;;;;;12996712;22;20170;-83
2022/07/03 16:12:21;;;;;;;2.50;2.30;;;26.10;93.20;;;;;;12927882;22;20591;-83
2022/07/03 16:17:24;;;;;;;2.70;2.17;;;26.00;93.30;;;;;;12978867;22;20165;-82
2022/07/03 16:22:27;;;;;;;2.20;2.00;;;26.20;93.00;;;;;;12977308;22;20481;-82
2022/07/03 16:27:31;;;;;;;2.10;1.90;;;26.40;92.80;;;;;;12975939;22;20805;-82
2022/07/03 16:32:36;;;;;;;2.63;2.03;;;26.40;91.20;;;;;;12976228;22;20181;-82
2022/07/03 16:37:54;;;;;;;2.33;2.10;;;26.50;92.50;;;;;;12976027;22;20219;-82
2022/07/03 16:43:02;;;;;;;2.55;2.35;;;26.60;91.80;;;;;;12951285;22;20173;-82
2022/07/03 16:48:12;;;;;;;1.80;1.70;;;26.70;92.10;;;;;;12979999;22;20178;-82
2022/07/03 16:53:18;;;;;;;2.28;2.10;;;26.80;91.90;;;;;;12979634;22;20181;-82
2022/07/03 16:58:22;;;;;;;1.77;1.65;;;26.80;91.90;;;;;;12970889;22;20676;-82
2022/07/03 17:03:25;;;;;;;2.03;1.92;;;26.80;91.90;;;;;;12977887;22;20239;-83
2022/07/03 17:08:28;;;;;;;1.75;1.65;;;26.80;91.90;;;;;;12980561;22;20173;-83
2022/07/03 17:13:32;;;;;;;1.98;1.88;;;26.70;92.10;;;;;;12981058;22;20239;-82
2022/07/03 17:19:01;;;;;;;2.22;2.10;;;26.50;92.30;;;;;;12958018;22;20573;-82
2022/07/03 17:24:06;;;;;;;1.70;1.60;;;26.40;92.60;;;;;;13003917;22;20243;-82
2022/07/03 17:29:18;;;;;;;2.00;1.90;;;26.30;92.80;;;;;;12984492;22;20227;-83
2022/07/03 17:34:22;;;;;;;1.88;1.77;;;26.20;93.00;;;;;;12986074;22;20212;-83
2022/07/03 17:39:29;;;;;;;2.10;2.00;;;26.00;93.30;;;;;;13003113;22;20169;-83
2022/07/03 17:44:35;;;;;;;1.80;1.70;;;25.90;93.60;;;;;;13000929;22;20632;-83
2022/07/03 17:49:44;;;;;;;2.30;2.10;;;25.90;93.90;;;;;;12984227;22;20189;-87
2022/07/03 17:54:47;;;;;;;8.68;2.28;;;25.80;94.30;;;;;;12975249;22;20500;-87
2022/07/03 17:59:52;;;;;;;4.18;2.30;;;24.20;95.90;;;;;;12931356;22;20177;-86
2022/07/03 18:04:55;;;;;;;2.67;1.98;;;23.70;99.90;;;;;;13002029;22;20192;-86
2022/07/03 18:10:03;;;;;;;3.45;2.40;;;24.10;97.10;;;;;;12973987;22;20224;-87
2022/07/03 18:15:16;;;;;;;2.40;2.17;;;23.30;99.90;;;;;;13002915;22;20165;-84
2022/07/03 18:20:21;;;;;;;6.53;3.25;;;22.40;99.90;;;;;;12974482;22;20561;-84
2022/07/03 18:25:28;;;;;;;7.75;2.97;;;21.90;99.90;;;;;;12955916;22;20177;-84
2022/07/03 18:30:31;;;;;;;6.18;2.95;;;21.40;99.90;;;;;;12983383;22;20236;-84
2022/07/03 18:35:36;;;;;;;7.03;2.85;;;21.20;99.90;;;;;;12983722;22;20549;-84
2022/07/03 18:40:40;;;;;;;8.93;2.70;;;20.90;99.90;;;;;;12956757;22;20166;-83
2022/07/03 18:45:44;;;;;;;7.68;2.97;;;20.50;99.90;;;;;;12983622;22;20536;-84
2022/07/03 18:50:50;;;;;;;4.07;2.72;;;20.40;99.90;;;;;;12981907;22;20193;-83
2022/07/03 18:55:56;;;;;;;6.22;3.55;;;20.20;99.90;;;;;;13002194;22;20192;-84
2022/07/03 19:01:01;;;;;;;7.53;3.33;;;19.80;99.90;;;;;;12980613;22;20185;-84
2022/07/03 19:06:08;;;;;;;4.40;3.15;;;19.50;99.90;;;;;;13000835;22;20231;-83
2022/07/03 19:11:12;;;;;;;7.97;3.58;;;19.20;99.90;;;;;;12954122;22;20251;-84
2022/07/03 19:16:16;;;;;;;7.35;3.92;;;19.80;99.90;;;;;;12955553;22;20223;-83
2022/07/03 19:21:19;;;;;;;8.35;3.45;;;20.30;99.90;;;;;;12955995;22;20193;-84
2022/07/03 19:26:22;;;;;;;7.25;3.05;;;21.70;99.90;;;;;;12982168;22;20201;-83
2022/07/03 19:31:25;;;;;;;5.95;3.05;;;22.60;99.90;;;;;;12978966;22;20566;-83
2022/07/03 19:36:27;;;;;;;4.10;3.00;;;23.00;99.90;;;;;;12951455;22;20244;-83
2022/07/03 19:41:30;;;;;;;8.32;3.50;;;23.40;99.90;;;;;;12978791;22;20170;-83
2022/07/03 19:46:33;;;;;;;5.80;3.10;;;23.70;99.90;;;;;;12977588;22;20174;-83
2022/07/03 19:51:36;;;;;;;2.85;2.55;;;23.90;99.90;;;;;;12995746;22;20190;-83
2022/07/03 19:56:38;;;;;;;6.78;2.78;;;24.00;99.90;;;;;;12950048;22;20166;-82
2022/07/03 20:01:41;;;;;;;6.28;3.08;;;24.10;99.90;;;;;;12950916;22;20223;-83
2022/07/03 20:06:44;;;;;;;4.20;3.00;;;24.20;99.90;;;;;;12950566;22;20165;-83
2022/07/03 20:11:48;;;;;;;3.35;3.05;;;24.30;99.90;;;;;;12978738;22;20193;-82
2022/07/03 20:16:52;;;;;;;3.38;3.13;;;24.40;99.90;;;;;;12974831;22;20255;-82
2022/07/03 20:21:54;;;;;;;2.97;2.67;;;24.40;99.90;;;;;;12949577;22;20239;-83
2022/07/03 20:26:58;;;;;;;2.67;2.47;;;24.40;99.90;;;;;;12949159;22;20226;-83
2022/07/03 20:32:01;;;;;;;3.55;3.25;;;24.50;99.90;;;;;;12950128;22;20259;-83
2022/07/03 20:37:05;;;;;;;4.15;2.85;;;24.40;99.90;;;;;;12967924;22;20181;-83
2022/07/03 20:42:09;;;;;;;3.17;2.88;;;24.50;99.90;;;;;;12978168;22;20220;-83
2022/07/03 20:47:12;;;;;;;3.13;2.90;;;24.50;99.90;;;;;;12977221;22;20223;-83
2022/07/03 20:52:14;;;;;;;2.45;2.25;;;24.50;99.90;;;;;;12975116;22;20290;-83
2022/07/03 20:57:17;;;;;;;3.25;2.78;;;24.50;99.90;;;;;;12976184;22;20165;-83
2022/07/03 21:02:19;;;;;;;2.42;2.20;;;24.50;99.90;;;;;;12949759;22;20182;-83
2022/07/03 21:07:22;;;;;;;2.58;2.38;;;24.50;99.90;;;;;;12977298;22;20196;-83
2022/07/03 21:12:25;;;;;;;2.72;2.53;;;24.50;99.90;;;;;;12977312;22;20247;-83
2022/07/03 21:17:27;;;;;;;3.05;2.75;;;24.40;99.90;;;;;;12950335;22;20170;-83
2022/07/03 21:22:30;;;;;;;3.00;2.75;;;24.40;99.90;;;;;;12973776;22;20182;-83
2022/07/03 21:27:32;;;;;;;3.83;2.90;;;24.40;99.90;;;;;;12976720;22;20551;-83
2022/07/03 21:32:34;;;;;;;2.60;2.40;;;24.40;99.90;;;;;;12976881;22;20583;-83
2022/07/03 21:37:37;;;;;;;4.45;2.90;;;24.40;99.90;;;;;;12951517;22;20192;-83
2022/07/03 21:42:39;;;;;;;2.90;2.70;;;24.40;99.90;;;;;;12979015;22;20162;-83
2022/07/03 21:47:42;;;;;;;2.72;2.53;;;24.40;99.90;;;;;;12977372;22;20216;-83
2022/07/03 21:52:44;;;;;;;3.00;2.80;;;24.40;99.90;;;;;;12977344;22;20569;-83
2022/07/03 21:57:47;;;;;;;2.85;2.63;;;24.40;99.90;;;;;;12976981;22;20162;-83
2022/07/03 22:02:49;;;;;;;3.15;2.85;;;24.40;99.90;;;;;;12956024;22;20170;-83
2022/07/03 22:07:52;;;;;;;2.80;2.60;;;24.40;99.90;;;;;;12983830;22;20219;-83
2022/07/03 22:12:55;;;;;;;2.70;2.50;;;24.40;99.90;;;;;;12983173;22;20220;-83
2022/07/03 22:17:57;;;;;;;2.83;2.63;;;24.40;99.90;;;;;;12981425;22;20508;-83
2022/07/03 22:23:00;;;;;;;2.45;2.25;;;24.40;99.90;;;;;;12955891;22;20879;-83
2022/07/03 22:28:02;;;;;;;2.90;2.70;;;24.40;99.90;;;;;;12956534;22;20557;-84
2022/07/03 22:33:05;;;;;;;2.67;2.47;;;24.40;99.90;;;;;;12956012;22;20239;-83
2022/07/03 22:38:08;;;;;;;3.13;2.90;;;24.30;99.90;;;;;;12956294;22;20169;-84
2022/07/03 22:43:10;;;;;;;2.88;2.63;;;24.40;99.90;;;;;;12983422;22;20174;-83
2022/07/03 22:48:12;;;;;;;2.55;2.35;;;24.30;99.90;;;;;;12983308;22;20511;-83
2022/07/03 22:53:15;;;;;;;2.17;2.08;;;24.30;99.90;;;;;;12983114;22;20190;-83
2022/07/03 22:58:17;;;;;;;2.53;2.33;;;24.30;99.90;;;;;;12955711;22;20165;-83
2022/07/03 23:03:20;;;;;;;2.60;2.40;;;24.30;99.90;;;;;;12982820;22;20177;-83
2022/07/03 23:08:22;;;;;;;2.30;2.10;;;24.30;99.90;;;;;;12955333;22;20239;-83
2022/07/03 23:13:25;;;;;;;3.17;2.95;;;24.30;99.90;;;;;;12984130;22;20190;-83
2022/07/03 23:18:27;;;;;;;3.65;2.65;;;24.30;99.90;;;;;;12989037;22;20482;-83
2022/07/03 23:23:30;;;;;;;2.70;2.50;;;24.30;99.90;;;;;;12982416;22;20200;-83
2022/07/03 23:28:32;;;;;;;2.70;2.50;;;24.30;99.90;;;;;;12982053;22;20204;-83
2022/07/03 23:33:35;;;;;;;2.72;2.53;;;24.30;99.90;;;;;;12954010;22;20194;-83
2022/07/03 23:38:38;;;;;;;2.40;2.30;;;24.30;99.90;;;;;;12981892;22;20188;-83
2022/07/03 23:43:40;;;;;;;2.85;2.53;;;24.20;99.90;;;;;;12982324;22;20170;-83
2022/07/03 23:54:04;;;;;;;3.13;2.83;;;24.30;99.90;;;;;;12982178;22;20189;-83
2022/07/03 23:59:06;;;;;;;2.42;2.28;;;24.20;99.90;;;;;;12981713;22;20189;-83
